createdAt,value
2023-02-14T00:00:28.986Z,96.81
2023-02-14T00:02:57.043Z,98.22
2023-02-14T00:05:23.794Z,98.69
2023-02-14T00:07:50.265Z,96.90
2023-02-14T00:10:17.296Z,96.37
2023-02-14T00:12:43.616Z,95.51
2023-02-14T00:15:22.237Z,95.58
2023-02-14T00:17:59.316Z,95.63
2023-02-14T00:20:26.841Z,95.75
2023-02-14T00:22:53.261Z,96.10
2023-02-14T00:25:19.707Z,94.72
2023-02-14T00:27:46.011Z,95.74
2023-02-14T00:30:14.059Z,94.98
2023-02-14T00:32:41.771Z,95.17
2023-02-14T00:35:09.817Z,95.96
2023-02-14T00:37:37.797Z,96.53
2023-02-14T00:40:06.389Z,95.48
2023-02-14T00:42:32.752Z,94.78
2023-02-14T00:44:59.102Z,95.32
2023-02-14T00:47:25.590Z,96.44
2023-02-14T00:49:52.018Z,95.57
2023-02-14T00:52:18.426Z,96.06
2023-02-14T00:54:44.750Z,96.67
2023-02-14T00:57:13.519Z,97.68
2023-02-14T00:59:39.834Z,97.97
2023-02-14T01:02:06.286Z,96.25
2023-02-14T01:04:33.996Z,96.10
2023-02-14T01:07:00.306Z,96.73
2023-02-14T01:09:26.660Z,98.33
2023-02-14T01:11:53.019Z,96.54
2023-02-14T01:14:19.429Z,95.36
2023-02-14T01:16:45.944Z,94.91
2023-02-14T01:19:12.342Z,94.41
2023-02-14T01:21:38.696Z,95.23
2023-02-14T01:24:07.775Z,95.22
2023-02-14T01:26:35.084Z,93.52
2023-02-14T01:29:02.098Z,93.41
2023-02-14T01:31:32.647Z,92.92
2023-02-14T01:33:59.861Z,94.64
2023-02-14T01:36:35.518Z,94.80
2023-02-14T01:39:06.273Z,94.21
2023-02-14T01:41:35.304Z,98.12
2023-02-14T01:44:07.601Z,96.82
2023-02-14T01:46:36.767Z,95.61
2023-02-14T01:49:18.427Z,95.23
2023-02-14T01:51:56.977Z,94.88
2023-02-14T01:54:46.291Z,95.45
2023-02-14T01:57:16.486Z,95.34
2023-02-14T01:59:50.047Z,95.76
2023-02-14T02:02:49.235Z,94.94
2023-02-14T02:05:16.412Z,95.90
2023-02-14T02:07:42.875Z,96.28
2023-02-14T02:10:09.623Z,96.18
2023-02-14T02:12:36.477Z,95.20
2023-02-14T02:15:04.676Z,96.83
2023-02-14T02:18:00.258Z,95.09
2023-02-14T02:20:50.875Z,94.67
2023-02-14T02:23:48.732Z,95.66
2023-02-14T02:26:40.094Z,97.52
2023-02-14T02:37:23.264Z,96.44
2023-02-14T02:40:32.608Z,97.48
2023-02-14T02:43:37.040Z,95.44
2023-02-14T02:46:30.348Z,96.52
2023-02-14T02:49:40.955Z,94.95
2023-02-14T02:52:40.716Z,95.49
2023-02-14T02:55:15.959Z,94.55
2023-02-14T02:57:44.468Z,94.96
2023-02-14T03:00:13.563Z,94.48
2023-02-14T03:03:46.390Z,95.80
2023-02-14T03:06:12.762Z,95.56
2023-02-14T03:08:39.126Z,95.29
2023-02-14T03:11:05.567Z,95.16
2023-02-14T03:13:40.901Z,94.08
2023-02-14T03:16:32.731Z,93.58
2023-02-14T03:19:10.252Z,94.40
2023-02-14T03:22:20.141Z,94.46
2023-02-14T03:24:56.150Z,94.98
2023-02-14T03:28:11.533Z,93.62
2023-02-14T03:35:12.523Z,93.53
2023-02-14T03:38:12.248Z,95.14
2023-02-14T03:40:49.298Z,94.40
2023-02-14T03:43:59.135Z,95.28
2023-02-14T03:46:35.035Z,94.34
2023-02-14T03:53:10.036Z,93.97
2023-02-14T03:55:44.128Z,94.65
2023-02-14T03:58:20.665Z,95.13
2023-02-14T04:00:50.463Z,95.23
2023-02-14T04:03:19.597Z,95.92
2023-02-14T04:05:52.057Z,95.07
2023-02-14T04:08:27.821Z,93.82
2023-02-14T04:15:16.478Z,93.58
2023-02-14T13:33:03.913Z,100.00
2023-02-14T13:35:34.162Z,100.00
2023-02-14T13:42:06.982Z,100.00
2023-02-14T13:44:46.269Z,100.00
2023-02-14T13:47:34.369Z,100.00
2023-02-14T13:50:02.194Z,100.00
2023-02-14T13:53:13.643Z,100.00
2023-02-14T13:55:44.396Z,100.00
2023-02-14T13:58:23.391Z,100.00
2023-02-14T14:00:53.605Z,100.00
2023-02-14T14:03:26.074Z,100.00
2023-02-14T14:05:58.737Z,100.00
2023-02-14T14:08:27.571Z,100.00
2023-02-14T14:10:57.655Z,100.00
2023-02-14T14:13:42.277Z,100.00
2023-02-14T14:16:24.363Z,100.00
2023-02-14T14:18:57.088Z,100.00
2023-02-14T14:21:30.594Z,100.00
2023-02-14T14:24:06.222Z,100.00
2023-02-14T14:26:45.773Z,100.00
2023-02-14T14:29:29.736Z,100.00
2023-02-14T14:31:56.638Z,100.00
2023-02-14T14:34:25.899Z,100.00
2023-02-14T14:37:07.136Z,100.00
2023-02-14T14:39:35.183Z,100.00
2023-02-14T14:42:15.406Z,100.00
2023-02-14T14:44:50.113Z,100.00
2023-02-14T14:47:21.124Z,100.00
2023-02-14T14:49:48.024Z,100.00
2023-02-14T14:52:28.897Z,100.00
2023-02-14T14:54:56.023Z,100.00
2023-02-14T16:00:26.623Z,100.00
2023-02-14T16:02:58.059Z,100.00
2023-02-14T16:05:26.156Z,100.00
2023-02-14T16:08:05.737Z,100.00
2023-02-14T16:10:37.579Z,100.00
2023-02-14T16:13:20.314Z,100.00
2023-02-14T16:15:59.425Z,100.00
2023-02-14T16:18:37.750Z,100.00
2023-02-14T16:21:14.735Z,100.00
2023-02-14T16:23:41.750Z,100.00
2023-02-14T16:26:08.721Z,100.00
2023-02-14T16:28:36.819Z,100.00
2023-02-14T16:31:10.022Z,100.00
2023-02-14T16:33:39.247Z,100.00
2023-02-14T16:36:19.419Z,100.00
2023-02-14T16:38:46.354Z,100.00
2023-02-14T16:41:16.525Z,100.00
2023-02-14T16:43:42.958Z,100.00
2023-02-14T16:46:12.519Z,100.00
2023-02-14T16:48:38.995Z,100.00
2023-02-14T16:51:05.780Z,100.00
2023-02-14T16:53:32.173Z,100.00
2023-02-14T16:55:58.676Z,100.00
2023-02-14T16:58:31.761Z,100.00
2023-02-14T17:00:58.594Z,100.00
2023-02-14T17:03:25.194Z,100.00
2023-02-14T17:05:52.002Z,100.00
2023-02-14T17:08:18.685Z,100.00
2023-02-14T17:10:47.827Z,100.00
2023-02-14T17:13:19.072Z,100.00
2023-02-14T17:15:45.405Z,100.00
2023-02-14T17:18:14.797Z,100.00
2023-02-14T17:20:41.195Z,100.00
2023-02-14T17:23:07.636Z,100.00
2023-02-14T17:25:35.004Z,100.00
2023-02-14T17:28:01.359Z,100.00
2023-02-14T17:30:28.143Z,100.00
2023-02-14T17:32:54.444Z,100.00
2023-02-14T17:35:21.150Z,100.00
2023-02-14T17:37:47.463Z,100.00
2023-02-14T17:40:14.874Z,100.00
2023-02-14T17:42:42.080Z,100.00
2023-02-14T17:45:11.569Z,100.00
2023-02-14T17:47:39.591Z,100.00
2023-02-14T17:50:06.700Z,100.00
2023-02-14T17:52:33.061Z,100.00
2023-02-14T17:54:59.885Z,100.00
2023-02-14T17:57:26.244Z,100.00
2023-02-14T17:59:53.350Z,100.00
2023-02-14T18:02:19.695Z,100.00
2023-02-14T18:04:48.152Z,100.00
2023-02-14T18:07:14.615Z,100.00
2023-02-14T18:09:40.957Z,100.00
2023-02-14T18:12:07.576Z,100.00
2023-02-14T18:14:34.303Z,100.00
2023-02-14T18:17:00.711Z,100.00
2023-02-14T18:19:27.807Z,100.00
2023-02-14T18:21:54.283Z,100.00
2023-02-14T18:24:20.610Z,100.00
2023-02-14T18:26:47.238Z,100.00
2023-02-14T18:29:13.669Z,100.00
2023-02-14T18:31:42.665Z,100.00
2023-02-14T18:34:09.502Z,100.00
2023-02-14T18:36:37.381Z,100.00
2023-02-14T18:39:04.497Z,100.00
2023-02-14T18:41:31.249Z,100.00
2023-02-14T18:43:58.227Z,100.00
2023-02-14T18:46:27.280Z,100.00
2023-02-14T18:48:55.785Z,100.00
2023-02-14T18:51:24.833Z,100.00
2023-02-14T18:53:52.245Z,100.00
2023-02-14T18:56:21.182Z,100.00
2023-02-14T18:58:52.533Z,100.00
2023-02-14T19:01:22.135Z,100.00
2023-02-14T19:03:50.312Z,100.00
2023-02-14T19:06:17.902Z,100.00
2023-02-14T19:08:44.700Z,100.00
2023-02-14T19:11:17.619Z,100.00
2023-02-14T19:13:45.901Z,100.00
2023-02-14T19:16:14.571Z,100.00
2023-02-14T19:18:41.023Z,100.00
2023-02-14T19:21:20.525Z,100.00
2023-02-14T19:23:46.972Z,100.00
2023-02-14T19:26:29.547Z,100.00
2023-02-14T19:28:57.969Z,100.00
2023-02-14T19:31:25.300Z,100.00
2023-02-14T19:33:51.866Z,100.00
2023-02-14T19:36:20.437Z,100.00
2023-02-14T19:38:49.369Z,100.00
2023-02-14T19:41:24.399Z,100.00
2023-02-14T19:43:51.583Z,100.00
2023-02-14T19:46:19.990Z,100.00
2023-02-14T19:48:47.377Z,100.00
2023-02-14T19:51:20.271Z,100.00
2023-02-14T19:53:46.704Z,100.00
2023-02-14T19:56:17.693Z,100.00
2023-02-14T19:58:44.060Z,100.00
2023-02-14T20:01:21.849Z,100.00
2023-02-14T20:03:48.195Z,100.00
2023-02-14T20:06:15.349Z,100.00
2023-02-14T20:08:41.666Z,100.00
2023-02-14T20:11:29.722Z,100.00
2023-02-14T20:13:56.958Z,100.00
2023-02-14T20:16:25.942Z,100.00
2023-02-14T20:18:52.839Z,100.00
2023-02-14T20:21:24.386Z,100.00
2023-02-14T20:24:12.560Z,100.00
2023-02-14T20:26:40.333Z,100.00
2023-02-14T20:29:09.615Z,100.00
2023-02-14T20:31:39.631Z,100.00
2023-02-14T20:34:06.947Z,100.00
2023-02-14T20:36:33.276Z,100.00
2023-02-14T20:39:02.093Z,100.00
2023-02-14T20:41:29.734Z,100.00
2023-02-14T20:44:04.168Z,100.00
2023-02-14T20:46:30.971Z,100.00
2023-02-14T20:48:57.332Z,100.00
2023-02-14T20:51:23.864Z,100.00
2023-02-14T20:53:50.228Z,100.00
2023-02-14T20:56:16.926Z,100.00
2023-02-14T20:58:43.306Z,100.00
2023-02-14T21:01:20.119Z,100.00
2023-02-14T21:03:50.626Z,100.00
2023-02-14T21:06:19.162Z,100.00
2023-02-14T21:08:46.514Z,100.00
2023-02-14T21:11:15.320Z,100.00
2023-02-14T21:13:42.280Z,100.00
2023-02-14T21:16:17.334Z,100.00
2023-02-14T21:18:48.468Z,100.00
2023-02-14T21:21:24.613Z,100.00
2023-02-14T21:23:52.269Z,100.00
2023-02-14T21:26:20.030Z,100.00
2023-02-14T21:28:46.338Z,100.00
2023-02-14T21:31:15.070Z,100.00
2023-02-14T21:33:41.456Z,100.00
2023-02-14T21:36:09.196Z,100.00
2023-02-14T21:38:36.169Z,100.00
2023-02-14T21:41:05.136Z,100.00
2023-02-14T21:43:39.416Z,100.00
2023-02-14T21:46:07.837Z,100.00
2023-02-14T21:48:53.157Z,100.00
2023-02-14T21:51:20.156Z,100.00
2023-02-14T21:53:46.868Z,100.00
2023-02-14T21:56:17.955Z,100.00
2023-02-14T21:58:44.390Z,100.00
2023-02-14T22:01:19.566Z,100.00
2023-02-14T22:03:46.598Z,100.00
2023-02-14T22:06:13.878Z,100.00
2023-02-14T22:08:40.649Z,100.00
2023-02-14T22:11:08.891Z,100.00
2023-02-14T22:13:35.916Z,100.00
2023-02-14T22:16:07.255Z,100.00
2023-02-14T22:18:33.796Z,100.00
2023-02-14T22:21:08.599Z,100.00
2023-02-14T22:23:35.417Z,100.00
2023-02-14T22:26:12.386Z,100.00
2023-02-14T22:28:39.842Z,100.00
2023-02-14T22:31:06.784Z,100.00
2023-02-14T22:33:33.498Z,100.00
2023-02-14T22:36:00.922Z,100.00
2023-02-14T22:38:27.614Z,100.00
2023-02-14T22:40:54.519Z,100.00
2023-02-14T22:43:21.939Z,100.00
2023-02-14T22:45:48.847Z,100.00
2023-02-14T22:48:15.415Z,100.00
2023-02-14T22:50:41.901Z,100.00
2023-02-14T22:53:08.215Z,100.00
2023-02-14T22:55:34.689Z,100.00
2023-02-14T22:58:01.198Z,100.00
2023-02-14T23:00:28.200Z,100.00
2023-02-14T23:02:54.576Z,100.00
2023-02-14T23:05:20.951Z,100.00
2023-02-14T23:07:47.333Z,100.00
2023-02-14T23:10:13.708Z,100.00
2023-02-14T23:12:58.823Z,100.00
2023-02-14T23:15:43.661Z,100.00
2023-02-14T23:18:31.366Z,100.00
2023-02-14T23:21:16.145Z,100.00
2023-02-14T23:23:42.471Z,100.00
2023-02-14T23:26:08.923Z,100.00
2023-02-14T23:28:35.336Z,100.00
2023-02-14T23:31:02.531Z,100.00
2023-02-14T23:33:28.854Z,100.00
2023-02-14T23:35:55.334Z,100.00
2023-02-14T23:38:21.736Z,100.00
2023-02-14T23:41:06.722Z,100.00
2023-02-14T23:43:33.019Z,100.00
2023-02-14T23:46:00.254Z,100.00
2023-02-14T23:48:26.740Z,100.00
2023-02-14T23:50:53.049Z,100.00
2023-02-14T23:53:19.417Z,100.00
2023-02-14T23:55:45.737Z,100.00
2023-02-14T23:58:12.020Z,100.00
